Time;durP1;ratioP1;P1;durP2;ratioP2;P2;SDS_P1;SDS_P2;PMS_P1;PMS_P2;Temp;Humidity;BMP_temperature;BMP_pressure;BME280_temperature;BME280_humidity;BME280_pressure;Samples;Min_cycle;Max_cycle;Signal;HPM_P1;HPM_P2
2022/02/17 00:00:40;;;;;;;2.40;1.08;;;12.00;99.90;;;;;;5046489;28;20029;-58
2022/02/17 00:03:06;;;;;;;3.00;0.88;;;11.90;99.90;;;;;;5044470;28;20386;-59
2022/02/17 00:05:32;;;;;;;2.10;1.33;;;11.80;99.90;;;;;;5045948;28;20017;-60
2022/02/17 00:07:59;;;;;;;0.60;0.50;;;11.80;99.90;;;;;;4999981;28;20608;-59
2022/02/17 00:10:26;;;;;;;2.15;0.60;;;11.80;99.90;;;;;;5015780;28;20037;-59
2022/02/17 00:12:53;;;;;;;2.53;0.85;;;11.70;99.90;;;;;;5024223;28;20033;-57
2022/02/17 00:15:19;;;;;;;3.17;0.82;;;11.70;99.90;;;;;;5022462;28;20033;-57
2022/02/17 00:17:45;;;;;;;3.53;1.65;;;11.60;99.90;;;;;;5020791;28;20080;-59
2022/02/17 00:20:11;;;;;;;1.83;0.70;;;11.60;99.90;;;;;;5021881;28;20038;-58
2022/02/17 00:22:37;;;;;;;1.08;0.70;;;11.60;99.90;;;;;;5017213;28;20113;-59
2022/02/17 00:25:04;;;;;;;2.35;0.63;;;11.60;99.90;;;;;;5026116;28;20125;-58
2022/02/17 00:27:29;;;;;;;1.40;0.90;;;11.60;99.90;;;;;;5022566;28;20105;-59
2022/02/17 00:29:55;;;;;;;1.48;0.50;;;11.60;99.90;;;;;;5015840;28;20042;-58
2022/02/17 00:32:21;;;;;;;1.30;0.70;;;11.60;99.90;;;;;;5030437;28;20045;-59
2022/02/17 00:34:46;;;;;;;4.63;0.80;;;11.60;99.90;;;;;;5016571;28;20041;-58
2022/02/17 00:37:12;;;;;;;1.58;0.90;;;11.60;99.90;;;;;;5026103;28;20041;-58
2022/02/17 00:39:37;;;;;;;1.77;1.10;;;11.60;99.90;;;;;;5025134;28;20102;-59
2022/02/17 00:42:03;;;;;;;2.92;1.00;;;11.60;99.90;;;;;;5016665;28;20030;-58
2022/02/17 00:44:29;;;;;;;1.73;0.90;;;11.60;99.90;;;;;;5013443;28;20033;-56
2022/02/17 00:46:55;;;;;;;1.60;0.82;;;11.60;99.90;;;;;;5024931;28;20029;-59
2022/02/17 00:49:26;;;;;;;1.08;0.82;;;11.60;99.90;;;;;;5012523;28;20029;-59
2022/02/17 00:51:52;;;;;;;3.13;1.00;;;11.50;99.90;;;;;;5013558;28;20105;-59
2022/02/17 00:54:18;;;;;;;2.83;0.70;;;11.60;99.90;;;;;;5020302;28;20022;-53
2022/02/17 00:56:44;;;;;;;5.55;0.75;;;11.50;99.90;;;;;;5013061;28;20061;-59
2022/02/17 00:59:11;;;;;;;3.60;0.68;;;11.60;99.90;;;;;;5024419;28;20487;-58
2022/02/17 01:01:36;;;;;;;4.25;0.70;;;11.60;99.90;;;;;;5020806;28;20033;-59
2022/02/17 01:04:02;;;;;;;1.35;0.70;;;11.60;99.90;;;;;;5025757;28;20096;-59
2022/02/17 01:06:27;;;;;;;1.40;0.85;;;11.80;99.90;;;;;;5005719;28;20045;-59
2022/02/17 01:08:53;;;;;;;1.27;0.70;;;11.90;99.90;;;;;;5024354;28;20022;-60
2022/02/17 01:11:18;;;;;;;8.07;0.90;;;11.80;99.90;;;;;;5026327;28;20038;-59
2022/02/17 01:13:44;;;;;;;1.35;0.77;;;11.80;99.90;;;;;;5026223;28;20407;-59
2022/02/17 01:16:09;;;;;;;4.20;0.80;;;11.70;99.90;;;;;;5027744;28;20045;-57
2022/02/17 01:18:35;;;;;;;4.47;0.90;;;11.70;99.90;;;;;;5029854;28;20041;-60
2022/02/17 01:21:01;;;;;;;4.75;1.45;;;11.70;99.90;;;;;;5029231;28;20148;-59
2022/02/17 01:23:28;;;;;;;1.17;0.77;;;11.50;99.90;;;;;;5026906;28;20045;-58
2022/02/17 01:25:53;;;;;;;3.42;0.80;;;11.40;99.90;;;;;;5028273;28;20030;-57
2022/02/17 01:28:19;;;;;;;7.13;1.08;;;11.30;99.90;;;;;;5030478;28;20033;-58
2022/02/17 01:30:44;;;;;;;1.45;0.80;;;11.30;99.90;;;;;;5030774;28;20099;-58
2022/02/17 01:33:10;;;;;;;3.35;1.05;;;11.30;99.90;;;;;;5030941;28;20061;-59
2022/02/17 01:35:35;;;;;;;3.05;1.20;;;11.30;99.90;;;;;;5019746;28;20552;-59
2022/02/17 01:38:01;;;;;;;3.03;1.10;;;11.30;99.90;;;;;;5016073;28;20373;-59
2022/02/17 01:40:27;;;;;;;3.10;1.05;;;11.30;99.90;;;;;;5027367;28;20445;-59
2022/02/17 01:42:52;;;;;;;5.82;1.65;;;11.40;99.90;;;;;;5009351;28;20041;-58
2022/02/17 01:45:18;;;;;;;2.72;1.45;;;11.40;99.90;;;;;;5019908;28;20402;-56
2022/02/17 01:47:48;;;;;;;4.47;1.55;;;11.40;99.90;;;;;;5028805;28;20052;-59
2022/02/17 01:50:15;;;;;;;7.40;1.50;;;11.30;99.90;;;;;;5030611;28;20040;-59
2022/02/17 01:52:40;;;;;;;5.38;1.50;;;11.30;99.90;;;;;;5023264;28;20034;-59
2022/02/17 01:55:07;;;;;;;6.95;1.27;;;11.30;99.90;;;;;;5026362;28;20043;-60
2022/02/17 01:57:34;;;;;;;8.93;2.72;;;11.50;99.90;;;;;;5024158;28;20498;-55
2022/02/17 02:00:00;;;;;;;8.82;2.63;;;11.50;99.90;;;;;;5025034;28;20033;-59
2022/02/17 02:02:27;;;;;;;9.63;1.65;;;11.50;99.90;;;;;;5019671;28;20104;-59
2022/02/17 02:04:52;;;;;;;9.10;2.00;;;11.50;99.90;;;;;;5025616;28;20531;-57
2022/02/17 02:07:18;;;;;;;12.02;2.53;;;11.50;99.90;;;;;;5004742;28;20077;-59
2022/02/17 02:09:44;;;;;;;8.93;2.30;;;11.50;99.90;;;;;;5013421;28;20038;-60
2022/02/17 02:12:10;;;;;;;3.65;1.45;;;11.40;99.90;;;;;;5019457;28;20380;-58
2022/02/17 02:14:47;;;;;;;10.65;2.55;;;11.40;99.90;;;;;;5014162;28;20029;-57
2022/02/17 02:17:13;;;;;;;14.25;2.33;;;11.40;99.90;;;;;;5017118;28;20040;-59
2022/02/17 02:19:38;;;;;;;8.63;2.13;;;11.30;99.90;;;;;;5021872;28;20033;-59
2022/02/17 02:22:04;;;;;;;13.80;2.28;;;11.30;99.90;;;;;;5011865;28;20036;-58
2022/02/17 02:24:30;;;;;;;12.55;2.05;;;11.30;99.90;;;;;;5015836;28;20093;-59
2022/02/17 02:26:56;;;;;;;9.85;2.10;;;11.30;99.90;;;;;;5012225;28;20108;-60
2022/02/17 02:29:21;;;;;;;14.50;2.65;;;11.20;99.90;;;;;;5017445;28;20108;-60
2022/02/17 02:31:47;;;;;;;13.90;2.63;;;11.20;99.90;;;;;;5019378;28;20032;-57
2022/02/17 02:34:12;;;;;;;12.43;3.42;;;11.20;99.90;;;;;;5015032;28;20504;-61
2022/02/17 02:36:38;;;;;;;16.02;3.42;;;11.20;99.90;;;;;;5026242;28;20041;-60
2022/02/17 02:39:04;;;;;;;17.75;3.33;;;11.10;99.90;;;;;;5023948;28;20113;-59
2022/02/17 02:41:29;;;;;;;14.20;2.45;;;11.00;99.90;;;;;;5018026;28;20030;-59
2022/02/17 02:43:59;;;;;;;13.20;3.08;;;11.00;99.90;;;;;;5009625;28;20480;-55
2022/02/17 02:46:24;;;;;;;19.48;3.13;;;10.90;99.90;;;;;;5010385;28;20129;-58
2022/02/17 02:48:50;;;;;;;23.33;4.53;;;10.90;99.90;;;;;;5014337;28;20077;-57
2022/02/17 02:51:15;;;;;;;15.38;3.28;;;10.90;99.90;;;;;;5017677;28;20447;-57
2022/02/17 02:53:41;;;;;;;23.38;5.07;;;10.80;99.90;;;;;;5018258;28;20112;-59
2022/02/17 02:56:06;;;;;;;20.42;3.85;;;10.80;99.90;;;;;;5013759;28;20034;-59
2022/02/17 02:58:32;;;;;;;20.10;3.65;;;10.70;99.90;;;;;;5012678;28;20026;-58
2022/02/17 03:00:58;;;;;;;16.52;3.42;;;10.80;99.90;;;;;;5019953;28;20068;-59
2022/02/17 03:03:24;;;;;;;25.08;3.80;;;10.70;99.90;;;;;;5024692;28;20037;-60
2022/02/17 03:05:49;;;;;;;23.02;4.55;;;10.70;99.90;;;;;;5029510;28;20109;-60
2022/02/17 03:08:15;;;;;;;16.95;4.22;;;10.70;99.90;;;;;;4998877;28;20049;-59
2022/02/17 03:10:41;;;;;;;16.60;3.50;;;10.70;99.90;;;;;;5018398;28;20030;-60
2022/02/17 03:13:07;;;;;;;19.30;3.97;;;10.70;99.90;;;;;;5009912;28;20037;-59
2022/02/17 03:15:33;;;;;;;22.15;4.35;;;10.80;99.90;;;;;;5016975;28;20055;-60
2022/02/17 03:17:58;;;;;;;23.20;4.60;;;10.80;99.90;;;;;;5019940;28;20025;-60
2022/02/17 03:20:24;;;;;;;29.60;4.43;;;10.80;99.90;;;;;;5021050;28;20049;-60
2022/02/17 03:22:49;;;;;;;19.88;3.58;;;10.80;99.90;;;;;;5015731;28;20037;-60
2022/02/17 03:25:16;;;;;;;23.80;4.80;;;10.90;99.90;;;;;;5017883;28;20025;-60
2022/02/17 03:27:42;;;;;;;24.20;4.55;;;10.80;99.90;;;;;;5028894;28;20025;-60
2022/02/17 03:30:10;;;;;;;21.77;4.20;;;10.70;99.90;;;;;;5024336;28;20038;-60
2022/02/17 03:32:37;;;;;;;21.23;5.07;;;10.70;99.90;;;;;;5025045;28;20052;-59
2022/02/17 03:35:05;;;;;;;20.25;4.15;;;10.70;99.90;;;;;;5026221;28;20028;-60
2022/02/17 03:37:30;;;;;;;21.95;4.75;;;10.70;99.90;;;;;;5025470;28;20029;-59
2022/02/17 03:39:56;;;;;;;24.75;5.05;;;10.70;99.90;;;;;;5026810;28;20049;-59
2022/02/17 03:42:22;;;;;;;32.58;5.32;;;10.60;99.90;;;;;;5022398;28;20030;-59
2022/02/17 03:44:47;;;;;;;17.88;4.50;;;10.60;99.90;;;;;;5019952;28;20025;-60
2022/02/17 03:47:13;;;;;;;20.05;5.15;;;10.50;99.90;;;;;;5018406;28;20141;-60
2022/02/17 03:49:39;;;;;;;26.55;5.25;;;10.50;99.90;;;;;;5024908;28;20483;-60
2022/02/17 03:52:05;;;;;;;28.60;4.82;;;10.50;99.90;;;;;;5020547;28;20037;-60
2022/02/17 03:54:31;;;;;;;26.50;5.03;;;10.50;99.90;;;;;;5019062;28;20064;-60
2022/02/17 03:56:56;;;;;;;37.50;6.30;;;10.50;99.90;;;;;;5016271;28;20073;-59
2022/02/17 03:59:22;;;;;;;32.88;5.07;;;10.50;99.90;;;;;;5026894;28;20034;-61
2022/02/17 04:01:48;;;;;;;28.42;4.75;;;10.50;99.90;;;;;;5017583;28;20022;-60
2022/02/17 04:04:16;;;;;;;32.17;6.35;;;10.50;99.90;;;;;;5017394;28;20084;-60
2022/02/17 04:06:42;;;;;;;28.67;6.60;;;10.10;99.90;;;;;;5013561;28;20030;-60
2022/02/17 04:09:07;;;;;;;28.10;5.93;;;9.90;99.90;;;;;;5001370;28;20065;-60
2022/02/17 04:11:33;;;;;;;28.95;5.28;;;9.70;99.90;;;;;;5021932;28;20060;-59
2022/02/17 04:13:59;;;;;;;32.35;6.05;;;9.60;99.90;;;;;;5022284;28;20040;-59
2022/02/17 04:16:25;;;;;;;30.35;4.70;;;9.50;99.90;;;;;;5017422;28;20416;-59
2022/02/17 04:18:51;;;;;;;32.80;6.13;;;9.40;99.90;;;;;;5021170;28;20067;-60
2022/02/17 04:21:18;;;;;;;29.90;4.38;;;9.40;99.90;;;;;;5023377;28;20030;-60
2022/02/17 04:23:44;;;;;;;29.02;5.57;;;9.40;99.90;;;;;;5019120;28;20021;-60
2022/02/17 04:26:12;;;;;;;25.13;5.05;;;9.40;99.90;;;;;;5018893;28;20491;-57
2022/02/17 04:28:39;;;;;;;33.55;4.53;;;9.40;99.90;;;;;;5019742;28;20795;-60
2022/02/17 04:31:06;;;;;;;26.23;5.07;;;9.40;99.90;;;;;;5018605;28;20036;-59
2022/02/17 04:33:35;;;;;;;39.47;5.47;;;9.40;99.90;;;;;;5017691;28;20030;-60
2022/02/17 04:36:01;;;;;;;55.50;7.88;;;9.30;99.90;;;;;;5024165;28;20041;-60
2022/02/17 04:38:27;;;;;;;49.50;7.53;;;9.30;99.90;;;;;;5026074;28;20041;-59
2022/02/17 04:43:37;;;;;;;28.30;5.20;;;9.20;99.90;;;;;;5014038;28;20040;-57
2022/02/17 04:46:03;;;;;;;24.65;4.40;;;9.30;99.90;;;;;;5021035;28;20399;-60
2022/02/17 04:48:29;;;;;;;28.63;6.13;;;9.30;99.90;;;;;;5018456;28;20456;-59
2022/02/17 04:50:54;;;;;;;37.00;7.20;;;9.30;99.90;;;;;;5023459;28;20029;-59
2022/02/17 04:53:20;;;;;;;28.73;5.30;;;9.40;99.90;;;;;;5016968;28;20129;-56
2022/02/17 04:55:46;;;;;;;30.10;5.55;;;9.40;99.90;;;;;;5025005;28;20095;-59
2022/02/17 04:58:12;;;;;;;33.95;6.10;;;9.50;99.90;;;;;;5019785;28;20491;-59
2022/02/17 05:00:38;;;;;;;39.53;5.63;;;9.50;99.90;;;;;;5025112;28;20021;-59
2022/02/17 05:03:04;;;;;;;36.53;5.97;;;9.50;99.90;;;;;;5021058;28;20034;-60
2022/02/17 05:05:29;;;;;;;25.85;4.32;;;9.40;99.90;;;;;;5026993;28;20026;-60
2022/02/17 05:07:55;;;;;;;32.90;7.82;;;9.50;99.90;;;;;;5002512;28;20141;-59
2022/02/17 05:10:20;;;;;;;22.30;4.88;;;9.50;99.90;;;;;;5018463;28;20570;-60
2022/02/17 05:12:46;;;;;;;23.20;4.78;;;9.60;99.90;;;;;;5022524;28;20538;-60
2022/02/17 05:15:11;;;;;;;27.33;4.95;;;9.60;99.90;;;;;;5016800;28;20119;-60
2022/02/17 05:17:37;;;;;;;40.28;6.20;;;9.60;99.90;;;;;;5025293;28;20104;-61
2022/02/17 05:20:03;;;;;;;26.80;5.47;;;9.60;99.90;;;;;;5025776;28;20392;-59
2022/02/17 05:22:28;;;;;;;30.77;5.35;;;9.60;99.90;;;;;;5018988;28;20446;-61
2022/02/17 05:24:54;;;;;;;35.83;7.32;;;9.60;99.90;;;;;;5017625;28;20037;-60
2022/02/17 05:27:19;;;;;;;29.80;5.30;;;9.60;99.90;;;;;;5017577;28;20026;-60
2022/02/17 05:29:45;;;;;;;30.63;5.30;;;9.60;99.90;;;;;;5023222;28;20022;-60
2022/02/17 05:32:10;;;;;;;30.15;6.80;;;9.60;99.90;;;;;;5013579;28;20026;-60
2022/02/17 05:34:36;;;;;;;26.20;4.60;;;9.60;99.90;;;;;;5018875;28;20514;-60
2022/02/17 05:37:02;;;;;;;32.08;6.65;;;9.60;99.90;;;;;;5019896;28;20032;-59
2022/02/17 05:39:28;;;;;;;21.23;4.65;;;9.60;99.90;;;;;;5015061;28;20474;-60
2022/02/17 05:41:54;;;;;;;30.80;7.57;;;9.60;99.90;;;;;;5023056;28;20045;-59
2022/02/17 05:44:19;;;;;;;37.72;7.28;;;9.40;99.90;;;;;;5026826;28;20029;-58
2022/02/17 05:46:45;;;;;;;31.02;5.53;;;9.20;99.90;;;;;;5024510;28;20026;-60
2022/02/17 05:49:11;;;;;;;45.80;6.88;;;9.00;99.90;;;;;;5016351;28;20022;-60
2022/02/17 05:51:37;;;;;;;50.25;6.97;;;8.80;99.90;;;;;;5018071;28;20180;-60
2022/02/17 05:54:03;;;;;;;35.33;6.97;;;8.80;99.90;;;;;;5014873;28;20098;-61
2022/02/17 05:56:28;;;;;;;27.17;5.60;;;8.70;99.90;;;;;;5022504;28;20617;-60
2022/02/17 05:58:54;;;;;;;35.60;6.07;;;8.70;99.90;;;;;;5015013;28;20033;-59
2022/02/17 06:01:19;;;;;;;42.40;8.07;;;8.60;99.90;;;;;;5016200;28;20037;-60
2022/02/17 06:03:45;;;;;;;39.65;6.63;;;8.60;99.90;;;;;;5015616;28;20057;-60
2022/02/17 06:06:10;;;;;;;46.75;8.77;;;8.60;99.90;;;;;;5018634;28;20080;-61
2022/02/17 06:08:36;;;;;;;47.35;7.40;;;8.70;99.90;;;;;;5022424;28;20018;-59
2022/02/17 06:11:01;;;;;;;35.28;5.93;;;8.70;99.90;;;;;;5018576;28;20080;-61
2022/02/17 06:13:27;;;;;;;43.30;6.38;;;8.70;99.90;;;;;;5021755;28;20029;-59
2022/02/17 06:15:52;;;;;;;40.17;7.60;;;8.80;99.90;;;;;;5015633;28;20026;-60
2022/02/17 06:18:18;;;;;;;50.72;8.15;;;8.80;99.90;;;;;;5022813;28;20036;-60
2022/02/17 06:20:43;;;;;;;31.88;5.63;;;8.80;99.90;;;;;;5020139;28;20032;-60
2022/02/17 06:23:09;;;;;;;41.00;6.07;;;8.80;99.90;;;;;;5022696;28;20041;-61
2022/02/17 06:25:34;;;;;;;45.92;7.57;;;8.80;99.90;;;;;;5025041;28;20021;-61
2022/02/17 06:28:02;;;;;;;42.65;6.32;;;8.90;99.90;;;;;;5018073;28;20024;-60
2022/02/17 06:30:28;;;;;;;34.60;5.93;;;8.80;99.90;;;;;;5015171;28;20519;-60
2022/02/17 06:32:55;;;;;;;45.65;6.45;;;8.90;99.90;;;;;;5015845;28;20037;-60
2022/02/17 06:35:23;;;;;;;48.20;7.45;;;8.90;99.90;;;;;;5022171;28;20140;-58
2022/02/17 06:37:50;;;;;;;41.28;9.38;;;9.00;99.90;;;;;;5019296;28;20075;-62
2022/02/17 06:40:17;;;;;;;34.63;6.88;;;9.00;99.90;;;;;;5020404;28;20084;-60
2022/02/17 06:42:43;;;;;;;45.85;7.68;;;8.90;99.90;;;;;;5017189;28;20036;-60
2022/02/17 06:45:09;;;;;;;40.40;5.93;;;8.90;99.90;;;;;;5016535;28;20390;-60
2022/02/17 06:47:35;;;;;;;37.17;6.97;;;8.90;99.90;;;;;;5021935;28;20483;-60
2022/02/17 06:50:02;;;;;;;31.83;6.45;;;8.90;99.90;;;;;;5018176;28;20045;-59
2022/02/17 06:52:27;;;;;;;32.42;6.40;;;8.90;99.90;;;;;;5019606;28;20033;-60
2022/02/17 06:54:53;;;;;;;42.75;7.38;;;9.00;99.90;;;;;;5019028;28;20383;-60
2022/02/17 06:57:21;;;;;;;34.03;5.38;;;8.90;99.90;;;;;;5014928;28;20030;-60
2022/02/17 06:59:52;;;;;;;32.05;5.72;;;8.90;99.90;;;;;;5018543;28;20033;-60
2022/02/17 07:02:24;;;;;;;52.08;7.15;;;8.80;99.90;;;;;;5016879;28;20033;-56
2022/02/17 07:04:50;;;;;;;28.48;6.43;;;8.70;99.90;;;;;;5013766;28;20030;-58
2022/02/17 07:07:16;;;;;;;33.60;6.43;;;8.70;99.90;;;;;;5021272;28;20055;-60
2022/02/17 07:09:42;;;;;;;45.22;8.07;;;8.60;99.90;;;;;;5015147;28;20072;-60
2022/02/17 07:12:08;;;;;;;31.75;6.65;;;8.60;99.90;;;;;;5023572;28;20914;-60
2022/02/17 07:14:34;;;;;;;56.85;7.75;;;8.60;99.90;;;;;;5017223;28;20045;-60
2022/02/17 07:17:00;;;;;;;36.83;7.95;;;8.60;99.90;;;;;;5022251;28;20514;-60
2022/02/17 07:19:26;;;;;;;40.72;6.65;;;8.50;99.90;;;;;;5021806;28;20121;-60
2022/02/17 07:21:52;;;;;;;39.47;7.97;;;8.50;99.90;;;;;;5018107;28;20041;-60
2022/02/17 07:24:21;;;;;;;32.22;6.10;;;8.50;99.90;;;;;;5019199;28;20112;-56
2022/02/17 07:26:48;;;;;;;29.13;5.22;;;8.60;99.90;;;;;;5017878;28;20028;-60
2022/02/17 07:29:14;;;;;;;47.22;7.28;;;8.70;99.90;;;;;;5022695;28;20076;-61
2022/02/17 07:31:40;;;;;;;33.17;7.25;;;8.80;99.90;;;;;;5017101;28;20036;-61
2022/02/17 07:34:07;;;;;;;38.17;6.00;;;8.80;99.90;;;;;;5017142;28;20591;-60
2022/02/17 07:36:33;;;;;;;42.92;8.07;;;8.90;99.90;;;;;;5018254;28;20065;-60
2022/02/17 07:38:58;;;;;;;33.20;5.43;;;8.90;99.90;;;;;;5016245;28;20030;-60
2022/02/17 07:41:24;;;;;;;33.13;6.15;;;8.90;99.90;;;;;;5015371;28;20092;-60
2022/02/17 07:43:50;;;;;;;32.60;7.47;;;8.90;99.90;;;;;;5018521;28;20387;-61
2022/02/17 07:46:16;;;;;;;33.15;7.45;;;8.90;99.90;;;;;;5013583;28;20116;-60
2022/02/17 07:48:42;;;;;;;42.15;6.75;;;8.90;99.90;;;;;;5012877;28;20029;-60
2022/02/17 07:51:07;;;;;;;34.67;6.53;;;8.90;99.90;;;;;;5015272;28;20063;-59
2022/02/17 07:53:33;;;;;;;36.45;5.47;;;9.10;99.90;;;;;;5016477;28;20043;-60
2022/02/17 07:55:59;;;;;;;36.42;6.68;;;9.10;99.90;;;;;;5016310;28;20475;-60
2022/02/17 07:58:26;;;;;;;35.88;6.20;;;9.20;99.90;;;;;;5012928;28;20048;-59
2022/02/17 08:00:51;;;;;;;46.03;7.28;;;9.10;99.90;;;;;;4990968;28;20045;-59
2022/02/17 08:03:17;;;;;;;33.38;5.47;;;9.00;99.90;;;;;;5012984;28;20096;-60
2022/02/17 08:05:43;;;;;;;37.90;6.85;;;8.90;99.90;;;;;;5012577;28;20440;-60
2022/02/17 08:08:10;;;;;;;38.35;7.78;;;8.90;99.90;;;;;;5016989;28;20039;-60
2022/02/17 08:10:36;;;;;;;48.30;8.52;;;9.00;99.90;;;;;;5019255;28;20060;-59
2022/02/17 08:13:03;;;;;;;45.55;7.78;;;8.90;99.90;;;;;;5018170;28;20022;-62
2022/02/17 08:15:28;;;;;;;39.78;8.10;;;8.90;99.90;;;;;;5022330;28;20045;-62
2022/02/17 08:17:54;;;;;;;49.88;8.32;;;8.80;99.90;;;;;;5019319;28;20049;-62
2022/02/17 08:20:20;;;;;;;42.55;7.60;;;8.60;99.90;;;;;;5022828;28;20038;-60
2022/02/17 08:22:53;;;;;;;42.20;6.65;;;8.50;99.90;;;;;;5018370;28;20014;-59
2022/02/17 08:25:20;;;;;;;43.40;6.85;;;8.50;99.90;;;;;;5019427;28;20041;-59
2022/02/17 08:27:47;;;;;;;28.55;5.90;;;8.50;99.90;;;;;;5017439;28;20041;-60
2022/02/17 08:30:14;;;;;;;35.25;6.18;;;8.50;99.90;;;;;;5024306;28;20030;-62
2022/02/17 08:32:40;;;;;;;39.33;9.20;;;8.50;99.90;;;;;;5022139;28;20108;-61
2022/02/17 08:35:08;;;;;;;42.72;8.77;;;8.50;99.90;;;;;;5027406;28;20108;-58
2022/02/17 08:37:34;;;;;;;39.05;6.03;;;8.50;99.90;;;;;;5021710;28;20026;-60
2022/02/17 08:39:59;;;;;;;34.58;7.85;;;8.60;99.90;;;;;;5014242;28;20037;-61
2022/02/17 08:42:25;;;;;;;33.60;7.40;;;8.90;99.90;;;;;;5028572;28;20482;-60
2022/02/17 08:44:51;;;;;;;34.35;7.82;;;9.10;99.90;;;;;;5018418;28;20099;-60
2022/02/17 08:47:18;;;;;;;35.67;6.40;;;9.30;99.90;;;;;;5017713;28;20817;-61
2022/02/17 08:49:44;;;;;;;34.83;6.45;;;9.30;99.90;;;;;;5019120;28;20104;-59
2022/02/17 08:52:10;;;;;;;39.13;6.47;;;9.10;99.90;;;;;;5021849;28;20033;-59
2022/02/17 08:54:36;;;;;;;33.63;7.13;;;8.90;99.90;;;;;;5018580;28;20029;-54
2022/02/17 08:57:02;;;;;;;44.83;7.75;;;8.70;99.90;;;;;;5021309;28;20129;-59
2022/02/17 08:59:28;;;;;;;46.33;6.75;;;8.70;99.90;;;;;;5019976;28;20030;-59
2022/02/17 09:01:54;;;;;;;44.80;7.95;;;8.70;99.90;;;;;;5007272;28;20108;-58
2022/02/17 09:04:20;;;;;;;49.08;8.48;;;8.80;99.90;;;;;;5021643;28;20034;-58
2022/02/17 09:06:49;;;;;;;33.85;5.80;;;8.90;99.90;;;;;;5026222;28;20034;-59
2022/02/17 09:09:15;;;;;;;38.85;5.57;;;9.00;99.90;;;;;;5020824;28;20124;-56
2022/02/17 09:11:41;;;;;;;43.42;7.38;;;8.90;99.90;;;;;;5014924;28;20033;-59
2022/02/17 09:14:07;;;;;;;38.03;6.05;;;8.90;99.90;;;;;;5005946;28;20029;-59
2022/02/17 09:16:33;;;;;;;39.55;6.13;;;9.00;99.90;;;;;;5025014;28;20095;-59
2022/02/17 09:18:59;;;;;;;38.58;7.68;;;9.20;99.90;;;;;;5007192;28;20029;-57
2022/02/17 09:21:25;;;;;;;36.22;6.55;;;9.30;99.90;;;;;;5020619;28;20479;-59
2022/02/17 09:23:50;;;;;;;32.25;6.43;;;9.30;99.90;;;;;;5014608;28;20101;-60
2022/02/17 09:26:16;;;;;;;39.28;6.75;;;9.40;99.90;;;;;;5008766;28;20037;-59
2022/02/17 09:28:43;;;;;;;31.20;6.47;;;9.50;99.90;;;;;;5024035;28;20022;-60
2022/02/17 09:31:12;;;;;;;29.73;6.30;;;9.70;99.90;;;;;;5026465;28;20041;-60
2022/02/17 09:33:38;;;;;;;28.88;5.45;;;9.70;99.90;;;;;;5019694;28;20033;-61
2022/02/17 09:36:04;;;;;;;25.73;4.75;;;9.90;99.90;;;;;;5019244;28;20372;-59
2022/02/17 09:38:30;;;;;;;31.67;5.50;;;10.20;99.90;;;;;;5018688;28;20044;-59
2022/02/17 09:40:56;;;;;;;41.90;7.38;;;10.70;99.90;;;;;;5018042;28;20030;-58
2022/02/17 09:43:24;;;;;;;31.80;5.55;;;11.00;99.90;;;;;;5014270;28;20061;-60
2022/02/17 09:45:51;;;;;;;24.48;5.20;;;11.00;99.90;;;;;;5020784;28;20018;-60
2022/02/17 09:48:17;;;;;;;30.42;5.78;;;11.10;99.90;;;;;;5016420;28;20030;-59
2022/02/17 09:50:43;;;;;;;25.10;4.97;;;11.10;99.90;;;;;;5020430;28;20022;-58
2022/02/17 09:53:09;;;;;;;31.83;7.15;;;10.80;99.90;;;;;;5001606;28;20045;-59
2022/02/17 09:55:35;;;;;;;30.48;5.70;;;10.60;99.90;;;;;;5023484;28;20030;-58
2022/02/17 09:58:01;;;;;;;30.98;4.88;;;10.40;99.90;;;;;;5025673;28;20041;-59
2022/02/17 10:00:27;;;;;;;33.28;5.50;;;10.20;99.90;;;;;;5006053;28;20053;-59
2022/02/17 10:02:52;;;;;;;24.63;5.63;;;10.10;99.90;;;;;;5041903;28;20028;-59
2022/02/17 10:05:18;;;;;;;32.35;8.50;;;10.40;99.90;;;;;;5038446;28;20490;-59
2022/02/17 10:07:45;;;;;;;20.33;5.18;;;10.90;99.90;;;;;;5040801;28;20565;-60
2022/02/17 10:10:14;;;;;;;33.38;5.18;;;11.20;99.70;;;;;;5039233;28;20108;-61
2022/02/17 10:13:01;;;;;;;23.40;5.05;;;11.60;99.90;;;;;;5035345;28;20033;-61
2022/02/17 10:15:29;;;;;;;20.73;4.53;;;11.90;98.60;;;;;;5039059;28;20517;-60
2022/02/17 10:18:13;;;;;;;25.10;5.60;;;11.50;99.00;;;;;;5036049;28;20116;-62
2022/02/17 10:21:06;;;;;;;30.02;5.28;;;11.40;99.40;;;;;;5030223;28;20566;-60
2022/02/17 10:23:36;;;;;;;19.38;4.22;;;11.50;99.40;;;;;;5038967;28;20114;-60
2022/02/17 10:26:07;;;;;;;25.60;4.53;;;11.40;97.90;;;;;;5040617;28;20021;-60
2022/02/17 10:28:44;;;;;;;23.23;4.22;;;11.30;98.50;;;;;;5035067;28;20101;-61
2022/02/17 10:31:24;;;;;;;21.30;4.35;;;11.00;97.30;;;;;;5039628;28;20120;-59
2022/02/17 10:33:54;;;;;;;17.45;4.70;;;11.20;99.00;;;;;;5033422;28;20095;-61
2022/02/17 10:36:40;;;;;;;23.88;4.45;;;11.40;98.00;;;;;;5033957;28;20045;-62
2022/02/17 10:39:22;;;;;;;23.30;4.22;;;11.20;99.00;;;;;;5037347;28;20541;-65
2022/02/17 10:41:57;;;;;;;18.35;5.10;;;11.40;99.40;;;;;;5043916;28;20533;-60
2022/02/17 10:44:29;;;;;;;25.60;4.63;;;11.60;98.20;;;;;;5040294;28;20036;-60
2022/02/17 10:46:54;;;;;;;17.02;4.68;;;11.60;97.20;;;;;;5032290;28;20103;-59
2022/02/17 10:49:21;;;;;;;22.23;4.18;;;11.70;96.30;;;;;;5036468;28;20060;-61
2022/02/17 10:51:48;;;;;;;25.70;5.43;;;11.50;95.80;;;;;;5038071;28;20466;-60
2022/02/17 10:54:24;;;;;;;16.88;3.58;;;11.50;96.80;;;;;;5038629;28;20391;-59
2022/02/17 10:56:53;;;;;;;17.70;4.22;;;11.60;94.20;;;;;;5037930;28;20071;-60
2022/02/17 11:02:05;;;;;;;15.88;3.72;;;11.20;93.10;;;;;;5024121;28;20056;-60
2022/02/17 11:04:31;;;;;;;18.90;4.18;;;11.20;94.90;;;;;;5037256;28;20086;-60
2022/02/17 11:06:57;;;;;;;14.13;3.90;;;11.10;94.50;;;;;;5036374;28;20029;-59
2022/02/17 11:09:24;;;;;;;19.20;4.13;;;11.00;95.60;;;;;;5042076;28;20074;-60
2022/02/17 11:11:51;;;;;;;13.93;3.42;;;11.10;95.90;;;;;;5048358;28;20028;-59
2022/02/17 11:14:38;;;;;;;17.33;4.35;;;11.30;94.10;;;;;;5041023;28;20033;-60
2022/02/17 11:17:05;;;;;;;21.65;4.00;;;11.40;95.30;;;;;;5038137;28;20028;-59
2022/02/17 11:19:31;;;;;;;18.10;3.30;;;11.60;95.90;;;;;;5040083;28;20025;-61
2022/02/17 11:21:57;;;;;;;30.38;4.32;;;11.70;95.20;;;;;;5035294;28;20115;-60
2022/02/17 11:24:22;;;;;;;14.63;3.70;;;11.70;94.70;;;;;;5037498;28;20155;-61
2022/02/17 11:27:01;;;;;;;12.80;3.40;;;11.70;93.60;;;;;;5036267;28;20108;-60
2022/02/17 11:29:36;;;;;;;13.10;2.67;;;11.70;93.50;;;;;;5039081;28;20041;-61
2022/02/17 11:32:04;;;;;;;13.02;2.53;;;11.60;93.50;;;;;;5037047;28;20029;-60
2022/02/17 11:34:50;;;;;;;12.90;2.78;;;11.40;93.20;;;;;;5039754;28;20034;-61
2022/02/17 11:37:22;;;;;;;14.38;3.08;;;11.40;93.80;;;;;;5042310;28;20051;-61
2022/02/17 11:40:08;;;;;;;11.73;2.90;;;11.20;92.00;;;;;;5040225;28;20399;-59
2022/02/17 11:42:42;;;;;;;12.32;2.08;;;11.00;91.90;;;;;;5033554;28;20074;-60
2022/02/17 11:45:09;;;;;;;13.10;3.13;;;11.00;93.00;;;;;;5037867;28;20029;-58
2022/02/17 11:48:03;;;;;;;11.40;2.83;;;11.10;92.50;;;;;;5035817;28;20395;-59
2022/02/17 11:50:47;;;;;;;9.88;3.28;;;11.50;92.30;;;;;;5036387;28;20060;-60
2022/02/17 11:53:24;;;;;;;18.70;3.17;;;11.70;91.20;;;;;;5041244;28;20037;-60
2022/02/17 11:55:54;;;;;;;15.43;3.08;;;11.70;91.40;;;;;;5037884;28;20026;-60
2022/02/17 11:58:44;;;;;;;11.60;2.30;;;11.80;91.10;;;;;;5002037;28;20616;-60
2022/02/17 12:01:24;;;;;;;15.23;2.67;;;11.70;91.30;;;;;;5008431;28;20059;-60
2022/02/17 12:04:08;;;;;;;13.32;3.35;;;11.80;92.30;;;;;;5023604;28;20038;-61
2022/02/17 12:06:41;;;;;;;16.08;3.15;;;11.70;90.20;;;;;;5026305;28;20525;-61
2022/02/17 12:09:08;;;;;;;11.30;3.20;;;11.70;91.20;;;;;;5023142;28;20030;-61
2022/02/17 12:11:37;;;;;;;16.13;3.65;;;11.50;91.60;;;;;;5019953;28;20426;-61
2022/02/17 12:14:07;;;;;;;15.38;3.33;;;11.40;92.20;;;;;;5025562;28;20104;-60
2022/02/17 12:16:38;;;;;;;12.93;2.97;;;11.40;93.20;;;;;;5016031;28;20022;-60
2022/02/17 12:19:14;;;;;;;14.75;3.83;;;11.40;93.60;;;;;;5025006;28;20034;-60
2022/02/17 12:21:41;;;;;;;12.77;3.15;;;11.40;93.60;;;;;;5020737;28;20033;-62
2022/02/17 12:24:09;;;;;;;14.93;3.40;;;11.40;92.50;;;;;;5024825;28;20030;-57
2022/02/17 12:26:44;;;;;;;16.27;3.38;;;11.50;92.70;;;;;;5022342;28;20665;-60
2022/02/17 12:29:23;;;;;;;15.15;2.88;;;11.60;91.90;;;;;;5016663;28;20395;-60
2022/02/17 12:31:49;;;;;;;9.95;2.40;;;11.70;91.40;;;;;;5022591;28;20174;-61
2022/02/17 12:34:15;;;;;;;15.10;2.67;;;11.80;90.60;;;;;;5017123;28;20463;-60
2022/02/17 12:36:41;;;;;;;10.70;2.38;;;11.90;89.30;;;;;;5021138;28;20030;-60
2022/02/17 12:39:07;;;;;;;9.93;2.33;;;11.90;89.00;;;;;;5029006;28;20056;-62
2022/02/17 12:41:33;;;;;;;13.30;2.30;;;11.80;88.70;;;;;;5014888;28;20108;-60
2022/02/17 12:43:59;;;;;;;12.02;2.40;;;11.80;89.20;;;;;;5031935;28;20538;-60
2022/02/17 12:46:24;;;;;;;14.05;2.35;;;11.60;88.20;;;;;;5025366;28;20037;-59
2022/02/17 12:48:50;;;;;;;12.43;2.63;;;11.50;89.70;;;;;;5026311;28;20029;-60